sensor_id;sensor_type;location;lat;lon;timestamp;P1;durP1;ratioP1;P2;durP2;ratioP2
7295;SDS011;40758;54.038;11.684;2023-07-29T00:01:17;4.10;;;1.80;;
7295;SDS011;40758;54.038;11.684;2023-07-29T00:03:44;5.22;;;2.53;;
7295;SDS011;40758;54.038;11.684;2023-07-29T00:06:11;7.40;;;2.65;;
7295;SDS011;40758;54.038;11.684;2023-07-29T00:08:38;4.88;;;2.13;;
7295;SDS011;40758;54.038;11.684;2023-07-29T00:11:04;4.45;;;1.88;;
7295;SDS011;40758;54.038;11.684;2023-07-29T00:13:32;4.68;;;1.80;;
7295;SDS011;40758;54.038;11.684;2023-07-29T00:15:59;4.28;;;1.95;;
7295;SDS011;40758;54.038;11.684;2023-07-29T00:18:26;5.30;;;2.65;;
7295;SDS011;40758;54.038;11.684;2023-07-29T00:20:53;5.07;;;1.77;;
7295;SDS011;40758;54.038;11.684;2023-07-29T00:23:20;4.88;;;2.85;;
7295;SDS011;40758;54.038;11.684;2023-07-29T00:25:48;5.30;;;2.38;;
7295;SDS011;40758;54.038;11.684;2023-07-29T00:28:16;4.45;;;1.95;;
7295;SDS011;40758;54.038;11.684;2023-07-29T00:30:46;5.30;;;2.30;;
7295;SDS011;40758;54.038;11.684;2023-07-29T00:33:13;6.10;;;2.45;;
7295;SDS011;40758;54.038;11.684;2023-07-29T00:35:39;3.30;;;1.77;;
7295;SDS011;40758;54.038;11.684;2023-07-29T00:38:06;6.15;;;1.83;;
7295;SDS011;40758;54.038;11.684;2023-07-29T00:40:35;5.75;;;2.20;;
7295;SDS011;40758;54.038;11.684;2023-07-29T00:43:02;7.00;;;2.78;;
7295;SDS011;40758;54.038;11.684;2023-07-29T00:45:29;4.72;;;2.50;;
7295;SDS011;40758;54.038;11.684;2023-07-29T00:47:58;4.75;;;2.03;;
7295;SDS011;40758;54.038;11.684;2023-07-29T00:50:26;5.70;;;1.85;;
7295;SDS011;40758;54.038;11.684;2023-07-29T00:52:55;6.00;;;2.80;;
7295;SDS011;40758;54.038;11.684;2023-07-29T00:55:23;4.88;;;2.10;;
7295;SDS011;40758;54.038;11.684;2023-07-29T00:57:51;4.60;;;2.63;;
7295;SDS011;40758;54.038;11.684;2023-07-29T01:00:21;5.10;;;2.40;;
7295;SDS011;40758;54.038;11.684;2023-07-29T01:02:48;5.05;;;2.40;;
7295;SDS011;40758;54.038;11.684;2023-07-29T01:05:16;5.30;;;2.53;;
7295;SDS011;40758;54.038;11.684;2023-07-29T01:07:47;5.20;;;2.42;;
7295;SDS011;40758;54.038;11.684;2023-07-29T01:13:03;7.07;;;2.65;;
7295;SDS011;40758;54.038;11.684;2023-07-29T01:18:31;5.78;;;2.40;;
7295;SDS011;40758;54.038;11.684;2023-07-29T01:21:03;4.65;;;2.17;;
7295;SDS011;40758;54.038;11.684;2023-07-29T01:23:31;5.07;;;2.40;;
7295;SDS011;40758;54.038;11.684;2023-07-29T01:25:59;5.35;;;2.17;;
7295;SDS011;40758;54.038;11.684;2023-07-29T01:28:26;4.93;;;2.78;;
7295;SDS011;40758;54.038;11.684;2023-07-29T01:31:37;6.85;;;3.15;;
7295;SDS011;40758;54.038;11.684;2023-07-29T01:33:53;5.70;;;3.00;;
7295;SDS011;40758;54.038;11.684;2023-07-29T01:36:25;5.53;;;3.10;;
7295;SDS011;40758;54.038;11.684;2023-07-29T01:38:56;6.63;;;3.17;;
7295;SDS011;40758;54.038;11.684;2023-07-29T01:43:51;5.47;;;2.50;;
7295;SDS011;40758;54.038;11.684;2023-07-29T01:46:19;6.68;;;3.22;;
7295;SDS011;40758;54.038;11.684;2023-07-29T01:48:46;5.88;;;3.55;;
7295;SDS011;40758;54.038;11.684;2023-07-29T01:51:13;5.97;;;2.97;;
7295;SDS011;40758;54.038;11.684;2023-07-29T01:53:40;5.97;;;2.80;;
7295;SDS011;40758;54.038;11.684;2023-07-29T01:56:07;7.05;;;4.15;;
7295;SDS011;40758;54.038;11.684;2023-07-29T01:58:33;6.18;;;3.05;;
7295;SDS011;40758;54.038;11.684;2023-07-29T02:01:00;8.07;;;3.78;;
7295;SDS011;40758;54.038;11.684;2023-07-29T02:03:27;9.40;;;2.55;;
7295;SDS011;40758;54.038;11.684;2023-07-29T02:05:54;6.63;;;2.72;;
7295;SDS011;40758;54.038;11.684;2023-07-29T02:08:22;6.65;;;2.95;;
7295;SDS011;40758;54.038;11.684;2023-07-29T02:10:48;6.13;;;2.80;;
7295;SDS011;40758;54.038;11.684;2023-07-29T02:13:15;7.40;;;3.33;;
7295;SDS011;40758;54.038;11.684;2023-07-29T02:15:42;6.43;;;3.63;;
7295;SDS011;40758;54.038;11.684;2023-07-29T02:18:08;5.80;;;3.22;;
7295;SDS011;40758;54.038;11.684;2023-07-29T02:20:35;6.45;;;3.90;;
7295;SDS011;40758;54.038;11.684;2023-07-29T02:23:02;8.45;;;3.85;;
7295;SDS011;40758;54.038;11.684;2023-07-29T02:25:29;7.35;;;4.70;;
7295;SDS011;40758;54.038;11.684;2023-07-29T02:27:55;7.68;;;3.97;;
7295;SDS011;40758;54.038;11.684;2023-07-29T02:30:22;5.95;;;3.50;;
7295;SDS011;40758;54.038;11.684;2023-07-29T02:32:48;7.90;;;2.60;;
7295;SDS011;40758;54.038;11.684;2023-07-29T02:35:16;7.95;;;3.75;;
7295;SDS011;40758;54.038;11.684;2023-07-29T02:37:43;5.85;;;2.88;;
7295;SDS011;40758;54.038;11.684;2023-07-29T02:40:10;6.15;;;2.67;;
7295;SDS011;40758;54.038;11.684;2023-07-29T02:42:37;6.63;;;4.18;;
7295;SDS011;40758;54.038;11.684;2023-07-29T02:45:04;6.22;;;3.38;;
7295;SDS011;40758;54.038;11.684;2023-07-29T02:47:37;8.23;;;3.88;;
7295;SDS011;40758;54.038;11.684;2023-07-29T02:50:04;8.70;;;3.85;;
7295;SDS011;40758;54.038;11.684;2023-07-29T02:52:31;8.25;;;4.07;;
7295;SDS011;40758;54.038;11.684;2023-07-29T02:54:58;7.18;;;4.05;;
7295;SDS011;40758;54.038;11.684;2023-07-29T02:57:25;8.65;;;3.47;;
7295;SDS011;40758;54.038;11.684;2023-07-29T02:59:51;7.68;;;3.60;;
7295;SDS011;40758;54.038;11.684;2023-07-29T03:02:18;8.57;;;3.95;;
7295;SDS011;40758;54.038;11.684;2023-07-29T03:04:45;7.15;;;3.88;;
7295;SDS011;40758;54.038;11.684;2023-07-29T03:07:13;6.40;;;3.08;;
7295;SDS011;40758;54.038;11.684;2023-07-29T03:09:41;6.38;;;3.20;;
7295;SDS011;40758;54.038;11.684;2023-07-29T03:12:08;6.90;;;2.90;;
7295;SDS011;40758;54.038;11.684;2023-07-29T03:14:35;5.50;;;2.92;;
7295;SDS011;40758;54.038;11.684;2023-07-29T03:17:02;5.70;;;2.92;;
7295;SDS011;40758;54.038;11.684;2023-07-29T03:19:30;6.88;;;3.95;;
7295;SDS011;40758;54.038;11.684;2023-07-29T03:21:57;6.03;;;3.28;;
7295;SDS011;40758;54.038;11.684;2023-07-29T03:24:24;6.70;;;2.95;;
7295;SDS011;40758;54.038;11.684;2023-07-29T03:26:51;5.47;;;2.83;;
7295;SDS011;40758;54.038;11.684;2023-07-29T03:29:17;5.53;;;2.63;;
7295;SDS011;40758;54.038;11.684;2023-07-29T03:31:44;5.65;;;3.15;;
7295;SDS011;40758;54.038;11.684;2023-07-29T03:34:10;5.80;;;2.83;;
7295;SDS011;40758;54.038;11.684;2023-07-29T03:36:38;5.53;;;2.97;;
7295;SDS011;40758;54.038;11.684;2023-07-29T03:39:08;8.20;;;3.38;;
7295;SDS011;40758;54.038;11.684;2023-07-29T03:41:35;7.20;;;4.75;;
7295;SDS011;40758;54.038;11.684;2023-07-29T03:44:01;7.10;;;3.17;;
7295;SDS011;40758;54.038;11.684;2023-07-29T03:46:28;6.85;;;3.70;;
7295;SDS011;40758;54.038;11.684;2023-07-29T03:48:55;7.10;;;3.30;;
7295;SDS011;40758;54.038;11.684;2023-07-29T03:51:23;8.95;;;3.67;;
7295;SDS011;40758;54.038;11.684;2023-07-29T03:53:51;7.65;;;3.72;;
7295;SDS011;40758;54.038;11.684;2023-07-29T03:56:17;8.60;;;4.18;;
7295;SDS011;40758;54.038;11.684;2023-07-29T03:58:45;8.45;;;4.18;;
7295;SDS011;40758;54.038;11.684;2023-07-29T04:01:13;6.65;;;3.13;;
7295;SDS011;40758;54.038;11.684;2023-07-29T04:03:40;6.53;;;3.53;;
7295;SDS011;40758;54.038;11.684;2023-07-29T04:06:07;8.05;;;3.25;;
7295;SDS011;40758;54.038;11.684;2023-07-29T04:08:34;7.40;;;3.47;;
7295;SDS011;40758;54.038;11.684;2023-07-29T04:11:00;5.72;;;3.78;;
7295;SDS011;40758;54.038;11.684;2023-07-29T04:13:27;8.27;;;4.10;;
7295;SDS011;40758;54.038;11.684;2023-07-29T04:15:54;6.95;;;4.25;;
7295;SDS011;40758;54.038;11.684;2023-07-29T04:18:21;7.63;;;3.72;;
7295;SDS011;40758;54.038;11.684;2023-07-29T04:20:48;6.93;;;3.35;;
7295;SDS011;40758;54.038;11.684;2023-07-29T04:23:14;5.85;;;3.15;;
7295;SDS011;40758;54.038;11.684;2023-07-29T04:25:41;6.95;;;3.08;;
7295;SDS011;40758;54.038;11.684;2023-07-29T04:28:08;6.43;;;3.60;;
7295;SDS011;40758;54.038;11.684;2023-07-29T04:30:34;7.40;;;3.25;;
7295;SDS011;40758;54.038;11.684;2023-07-29T04:33:01;7.45;;;3.58;;
7295;SDS011;40758;54.038;11.684;2023-07-29T04:35:28;6.82;;;3.70;;
7295;SDS011;40758;54.038;11.684;2023-07-29T04:37:55;6.57;;;3.10;;
7295;SDS011;40758;54.038;11.684;2023-07-29T04:40:22;8.00;;;4.82;;
7295;SDS011;40758;54.038;11.684;2023-07-29T04:42:49;7.03;;;3.95;;
7295;SDS011;40758;54.038;11.684;2023-07-29T04:45:17;8.13;;;4.60;;
7295;SDS011;40758;54.038;11.684;2023-07-29T04:47:43;9.20;;;4.70;;
7295;SDS011;40758;54.038;11.684;2023-07-29T04:50:10;6.78;;;3.50;;
7295;SDS011;40758;54.038;11.684;2023-07-29T04:52:37;7.15;;;3.95;;
7295;SDS011;40758;54.038;11.684;2023-07-29T04:55:04;9.07;;;3.83;;
7295;SDS011;40758;54.038;11.684;2023-07-29T04:57:30;10.48;;;4.75;;
7295;SDS011;40758;54.038;11.684;2023-07-29T04:59:57;8.05;;;4.53;;
7295;SDS011;40758;54.038;11.684;2023-07-29T05:02:24;8.90;;;4.63;;
7295;SDS011;40758;54.038;11.684;2023-07-29T05:04:51;8.52;;;5.00;;
7295;SDS011;40758;54.038;11.684;2023-07-29T05:07:17;8.40;;;4.97;;
7295;SDS011;40758;54.038;11.684;2023-07-29T05:09:44;9.50;;;5.63;;
7295;SDS011;40758;54.038;11.684;2023-07-29T05:12:11;9.35;;;5.05;;
7295;SDS011;40758;54.038;11.684;2023-07-29T05:14:38;8.20;;;5.30;;
7295;SDS011;40758;54.038;11.684;2023-07-29T05:17:04;9.27;;;5.57;;
7295;SDS011;40758;54.038;11.684;2023-07-29T05:19:31;9.60;;;5.55;;
7295;SDS011;40758;54.038;11.684;2023-07-29T05:21:58;9.75;;;5.70;;
7295;SDS011;40758;54.038;11.684;2023-07-29T05:24:25;9.05;;;5.35;;
7295;SDS011;40758;54.038;11.684;2023-07-29T05:26:51;10.13;;;5.90;;
7295;SDS011;40758;54.038;11.684;2023-07-29T05:29:18;13.00;;;6.18;;
7295;SDS011;40758;54.038;11.684;2023-07-29T05:31:45;9.93;;;6.03;;
7295;SDS011;40758;54.038;11.684;2023-07-29T05:34:12;13.25;;;7.97;;
7295;SDS011;40758;54.038;11.684;2023-07-29T05:36:38;12.00;;;8.10;;
7295;SDS011;40758;54.038;11.684;2023-07-29T05:39:05;12.52;;;6.90;;
7295;SDS011;40758;54.038;11.684;2023-07-29T05:41:33;13.40;;;6.63;;
7295;SDS011;40758;54.038;11.684;2023-07-29T05:44:00;12.77;;;7.47;;
7295;SDS011;40758;54.038;11.684;2023-07-29T05:46:27;12.88;;;6.97;;
7295;SDS011;40758;54.038;11.684;2023-07-29T05:48:54;14.10;;;7.38;;
7295;SDS011;40758;54.038;11.684;2023-07-29T05:51:20;14.35;;;6.95;;
7295;SDS011;40758;54.038;11.684;2023-07-29T05:53:47;12.60;;;7.70;;
7295;SDS011;40758;54.038;11.684;2023-07-29T05:56:14;12.88;;;7.00;;
7295;SDS011;40758;54.038;11.684;2023-07-29T05:58:41;12.85;;;7.05;;
7295;SDS011;40758;54.038;11.684;2023-07-29T06:01:07;15.32;;;8.27;;
7295;SDS011;40758;54.038;11.684;2023-07-29T06:03:34;15.48;;;8.65;;
7295;SDS011;40758;54.038;11.684;2023-07-29T06:06:01;16.27;;;9.38;;
7295;SDS011;40758;54.038;11.684;2023-07-29T06:08:28;14.55;;;9.82;;
7295;SDS011;40758;54.038;11.684;2023-07-29T06:10:55;13.35;;;8.07;;
7295;SDS011;40758;54.038;11.684;2023-07-29T06:13:22;13.25;;;8.38;;
7295;SDS011;40758;54.038;11.684;2023-07-29T06:15:49;15.85;;;10.07;;
7295;SDS011;40758;54.038;11.684;2023-07-29T06:18:16;15.48;;;8.82;;
7295;SDS011;40758;54.038;11.684;2023-07-29T06:20:43;15.38;;;8.55;;
7295;SDS011;40758;54.038;11.684;2023-07-29T06:23:09;13.27;;;8.63;;
7295;SDS011;40758;54.038;11.684;2023-07-29T06:25:36;13.05;;;8.82;;
7295;SDS011;40758;54.038;11.684;2023-07-29T06:28:03;15.57;;;9.13;;
7295;SDS011;40758;54.038;11.684;2023-07-29T06:30:31;15.13;;;8.63;;
7295;SDS011;40758;54.038;11.684;2023-07-29T06:32:58;14.40;;;8.32;;
7295;SDS011;40758;54.038;11.684;2023-07-29T06:35:24;15.02;;;8.88;;
7295;SDS011;40758;54.038;11.684;2023-07-29T06:37:51;13.30;;;7.30;;
7295;SDS011;40758;54.038;11.684;2023-07-29T06:40:18;11.98;;;6.68;;
7295;SDS011;40758;54.038;11.684;2023-07-29T06:42:44;14.48;;;8.45;;
7295;SDS011;40758;54.038;11.684;2023-07-29T06:45:11;13.10;;;7.55;;
7295;SDS011;40758;54.038;11.684;2023-07-29T06:47:38;13.10;;;7.25;;
7295;SDS011;40758;54.038;11.684;2023-07-29T06:50:05;12.35;;;7.15;;
7295;SDS011;40758;54.038;11.684;2023-07-29T06:52:31;12.23;;;7.47;;
7295;SDS011;40758;54.038;11.684;2023-07-29T06:54:58;10.88;;;7.35;;
7295;SDS011;40758;54.038;11.684;2023-07-29T06:57:25;13.23;;;7.63;;
7295;SDS011;40758;54.038;11.684;2023-07-29T06:59:52;11.48;;;7.32;;
7295;SDS011;40758;54.038;11.684;2023-07-29T07:02:19;11.82;;;6.80;;
7295;SDS011;40758;54.038;11.684;2023-07-29T07:04:46;11.32;;;7.35;;
7295;SDS011;40758;54.038;11.684;2023-07-29T07:07:12;13.90;;;7.15;;
7295;SDS011;40758;54.038;11.684;2023-07-29T07:09:39;10.77;;;6.90;;
7295;SDS011;40758;54.038;11.684;2023-07-29T07:12:06;11.98;;;7.80;;
7295;SDS011;40758;54.038;11.684;2023-07-29T07:14:33;10.75;;;6.72;;
7295;SDS011;40758;54.038;11.684;2023-07-29T07:17:00;12.32;;;7.40;;
7295;SDS011;40758;54.038;11.684;2023-07-29T07:19:26;12.73;;;8.50;;
7295;SDS011;40758;54.038;11.684;2023-07-29T07:21:53;16.17;;;9.32;;
7295;SDS011;40758;54.038;11.684;2023-07-29T07:24:20;16.90;;;9.98;;
7295;SDS011;40758;54.038;11.684;2023-07-29T07:26:47;15.30;;;9.20;;
7295;SDS011;40758;54.038;11.684;2023-07-29T07:29:13;17.85;;;10.50;;
7295;SDS011;40758;54.038;11.684;2023-07-29T07:31:40;17.65;;;10.30;;
7295;SDS011;40758;54.038;11.684;2023-07-29T07:34:07;21.60;;;12.68;;
7295;SDS011;40758;54.038;11.684;2023-07-29T07:36:33;21.20;;;12.13;;
7295;SDS011;40758;54.038;11.684;2023-07-29T07:39:00;21.50;;;13.13;;
7295;SDS011;40758;54.038;11.684;2023-07-29T07:41:27;25.83;;;15.15;;
7295;SDS011;40758;54.038;11.684;2023-07-29T07:43:54;24.02;;;15.15;;
7295;SDS011;40758;54.038;11.684;2023-07-29T07:46:22;22.35;;;14.93;;
7295;SDS011;40758;54.038;11.684;2023-07-29T07:48:50;19.30;;;12.82;;
7295;SDS011;40758;54.038;11.684;2023-07-29T07:51:17;20.98;;;13.52;;
7295;SDS011;40758;54.038;11.684;2023-07-29T07:53:43;22.48;;;14.23;;
7295;SDS011;40758;54.038;11.684;2023-07-29T07:56:10;23.25;;;15.27;;
7295;SDS011;40758;54.038;11.684;2023-07-29T07:58:37;21.90;;;13.75;;
7295;SDS011;40758;54.038;11.684;2023-07-29T08:01:05;25.88;;;16.17;;
7295;SDS011;40758;54.038;11.684;2023-07-29T08:03:33;27.50;;;14.65;;
7295;SDS011;40758;54.038;11.684;2023-07-29T08:06:01;23.30;;;14.52;;
7295;SDS011;40758;54.038;11.684;2023-07-29T08:08:28;26.05;;;16.58;;
7295;SDS011;40758;54.038;11.684;2023-07-29T08:10:56;25.55;;;15.90;;
7295;SDS011;40758;54.038;11.684;2023-07-29T08:13:24;25.65;;;14.63;;
7295;SDS011;40758;54.038;11.684;2023-07-29T08:15:51;24.20;;;15.68;;
7295;SDS011;40758;54.038;11.684;2023-07-29T08:18:19;28.13;;;16.50;;
7295;SDS011;40758;54.038;11.684;2023-07-29T08:20:52;25.73;;;15.35;;
7295;SDS011;40758;54.038;11.684;2023-07-29T08:23:21;25.75;;;15.65;;
7295;SDS011;40758;54.038;11.684;2023-07-29T08:25:52;23.98;;;13.40;;
7295;SDS011;40758;54.038;11.684;2023-07-29T08:28:30;21.70;;;15.32;;
7295;SDS011;40758;54.038;11.684;2023-07-29T08:30:58;20.00;;;12.02;;
7295;SDS011;40758;54.038;11.684;2023-07-29T08:33:26;19.20;;;12.85;;
7295;SDS011;40758;54.038;11.684;2023-07-29T08:35:53;19.08;;;11.55;;
7295;SDS011;40758;54.038;11.684;2023-07-29T08:38:20;18.95;;;12.40;;
7295;SDS011;40758;54.038;11.684;2023-07-29T08:40:52;18.77;;;13.27;;
7295;SDS011;40758;54.038;11.684;2023-07-29T08:43:29;16.52;;;11.07;;
7295;SDS011;40758;54.038;11.684;2023-07-29T08:45:59;14.80;;;10.55;;
7295;SDS011;40758;54.038;11.684;2023-07-29T08:48:32;16.75;;;12.85;;
7295;SDS011;40758;54.038;11.684;2023-07-29T08:51:03;15.13;;;9.50;;
7295;SDS011;40758;54.038;11.684;2023-07-29T08:53:30;15.60;;;10.30;;
7295;SDS011;40758;54.038;11.684;2023-07-29T08:55:59;14.60;;;9.70;;
7295;SDS011;40758;54.038;11.684;2023-07-29T08:58:25;15.30;;;10.20;;
7295;SDS011;40758;54.038;11.684;2023-07-29T09:00:53;18.00;;;11.50;;
7295;SDS011;40758;54.038;11.684;2023-07-29T09:03:20;16.48;;;11.38;;
7295;SDS011;40758;54.038;11.684;2023-07-29T09:05:47;14.30;;;11.23;;
7295;SDS011;40758;54.038;11.684;2023-07-29T09:08:15;16.60;;;12.00;;
7295;SDS011;40758;54.038;11.684;2023-07-29T09:10:41;13.63;;;9.23;;
7295;SDS011;40758;54.038;11.684;2023-07-29T09:13:08;13.93;;;10.85;;
7295;SDS011;40758;54.038;11.684;2023-07-29T09:15:36;12.27;;;9.02;;
7295;SDS011;40758;54.038;11.684;2023-07-29T09:18:10;13.85;;;11.43;;
7295;SDS011;40758;54.038;11.684;2023-07-29T09:20:48;15.30;;;11.98;;
7295;SDS011;40758;54.038;11.684;2023-07-29T09:23:17;12.90;;;9.23;;
7295;SDS011;40758;54.038;11.684;2023-07-29T09:25:46;12.18;;;10.30;;
7295;SDS011;40758;54.038;11.684;2023-07-29T09:28:16;11.77;;;9.48;;
7295;SDS011;40758;54.038;11.684;2023-07-29T09:30:45;10.85;;;9.32;;
7295;SDS011;40758;54.038;11.684;2023-07-29T09:33:13;11.85;;;9.43;;
7295;SDS011;40758;54.038;11.684;2023-07-29T09:35:41;11.05;;;9.23;;
7295;SDS011;40758;54.038;11.684;2023-07-29T09:38:08;10.07;;;8.95;;
7295;SDS011;40758;54.038;11.684;2023-07-29T09:40:41;10.20;;;8.55;;
7295;SDS011;40758;54.038;11.684;2023-07-29T09:43:09;11.30;;;8.73;;
7295;SDS011;40758;54.038;11.684;2023-07-29T09:45:37;9.65;;;8.30;;
7295;SDS011;40758;54.038;11.684;2023-07-29T09:48:04;9.95;;;8.63;;
7295;SDS011;40758;54.038;11.684;2023-07-29T09:50:36;9.45;;;7.90;;
7295;SDS011;40758;54.038;11.684;2023-07-29T09:53:03;9.63;;;7.57;;
7295;SDS011;40758;54.038;11.684;2023-07-29T09:55:33;8.80;;;5.63;;
7295;SDS011;40758;54.038;11.684;2023-07-29T09:58:01;8.43;;;7.25;;
7295;SDS011;40758;54.038;11.684;2023-07-29T10:00:31;8.32;;;7.15;;
7295;SDS011;40758;54.038;11.684;2023-07-29T10:02:58;8.35;;;6.13;;
7295;SDS011;40758;54.038;11.684;2023-07-29T10:05:26;8.63;;;7.20;;
7295;SDS011;40758;54.038;11.684;2023-07-29T10:07:55;8.63;;;7.57;;
7295;SDS011;40758;54.038;11.684;2023-07-29T10:10:22;8.43;;;6.57;;
7295;SDS011;40758;54.038;11.684;2023-07-29T10:12:50;10.23;;;6.32;;
7295;SDS011;40758;54.038;11.684;2023-07-29T10:15:18;10.15;;;7.25;;
7295;SDS011;40758;54.038;11.684;2023-07-29T10:17:49;9.32;;;6.68;;
7295;SDS011;40758;54.038;11.684;2023-07-29T10:20:20;10.02;;;6.93;;
7295;SDS011;40758;54.038;11.684;2023-07-29T10:22:51;9.38;;;5.72;;
7295;SDS011;40758;54.038;11.684;2023-07-29T10:25:22;8.25;;;5.38;;
7295;SDS011;40758;54.038;11.684;2023-07-29T10:28:00;8.10;;;5.57;;
7295;SDS011;40758;54.038;11.684;2023-07-29T10:30:56;8.63;;;6.85;;
7295;SDS011;40758;54.038;11.684;2023-07-29T10:33:30;11.10;;;6.93;;
7295;SDS011;40758;54.038;11.684;2023-07-29T10:36:12;9.75;;;6.28;;
7295;SDS011;40758;54.038;11.684;2023-07-29T10:38:42;11.55;;;7.68;;
7295;SDS011;40758;54.038;11.684;2023-07-29T10:41:18;9.23;;;6.85;;
7295;SDS011;40758;54.038;11.684;2023-07-29T10:43:47;8.75;;;5.80;;
7295;SDS011;40758;54.038;11.684;2023-07-29T10:46:19;9.70;;;6.63;;
7295;SDS011;40758;54.038;11.684;2023-07-29T10:48:54;12.30;;;6.57;;
7295;SDS011;40758;54.038;11.684;2023-07-29T10:51:57;11.00;;;6.72;;
7295;SDS011;40758;54.038;11.684;2023-07-29T10:54:20;11.48;;;6.93;;
7295;SDS011;40758;54.038;11.684;2023-07-29T10:56:52;12.13;;;8.48;;
7295;SDS011;40758;54.038;11.684;2023-07-29T10:59:32;20.90;;;11.23;;
7295;SDS011;40758;54.038;11.684;2023-07-29T11:02:00;17.23;;;11.07;;
7295;SDS011;40758;54.038;11.684;2023-07-29T11:04:30;20.55;;;11.80;;
7295;SDS011;40758;54.038;11.684;2023-07-29T11:12:34;17.88;;;12.45;;
7295;SDS011;40758;54.038;11.684;2023-07-29T11:15:04;21.48;;;14.38;;
7295;SDS011;40758;54.038;11.684;2023-07-29T11:17:42;22.63;;;13.50;;
7295;SDS011;40758;54.038;11.684;2023-07-29T11:20:12;28.73;;;15.77;;
7295;SDS011;40758;54.038;11.684;2023-07-29T11:22:46;27.45;;;16.65;;
7295;SDS011;40758;54.038;11.684;2023-07-29T11:25:22;26.15;;;15.60;;
7295;SDS011;40758;54.038;11.684;2023-07-29T11:27:58;27.98;;;15.45;;
7295;SDS011;40758;54.038;11.684;2023-07-29T11:30:32;33.05;;;14.57;;
7295;SDS011;40758;54.038;11.684;2023-07-29T11:33:12;23.92;;;12.48;;
7295;SDS011;40758;54.038;11.684;2023-07-29T11:35:52;29.15;;;12.52;;
7295;SDS011;40758;54.038;11.684;2023-07-29T11:38:31;22.95;;;10.57;;
7295;SDS011;40758;54.038;11.684;2023-07-29T11:41:04;18.38;;;10.40;;
7295;SDS011;40758;54.038;11.684;2023-07-29T11:43:35;21.17;;;10.35;;
7295;SDS011;40758;54.038;11.684;2023-07-29T11:46:11;16.83;;;8.40;;
7295;SDS011;40758;54.038;11.684;2023-07-29T11:48:50;11.45;;;6.68;;
7295;SDS011;40758;54.038;11.684;2023-07-29T11:51:27;8.90;;;5.72;;
7295;SDS011;40758;54.038;11.684;2023-07-29T11:53:55;9.25;;;5.22;;
7295;SDS011;40758;54.038;11.684;2023-07-29T11:56:31;8.20;;;4.18;;
7295;SDS011;40758;54.038;11.684;2023-07-29T11:59:13;6.63;;;2.60;;
7295;SDS011;40758;54.038;11.684;2023-07-29T12:04:25;6.57;;;3.17;;
7295;SDS011;40758;54.038;11.684;2023-07-29T12:06:59;5.68;;;4.10;;
7295;SDS011;40758;54.038;11.684;2023-07-29T12:09:28;7.10;;;3.58;;
7295;SDS011;40758;54.038;11.684;2023-07-29T12:11:59;5.50;;;2.90;;
7295;SDS011;40758;54.038;11.684;2023-07-29T12:14:29;7.10;;;3.50;;
7295;SDS011;40758;54.038;11.684;2023-07-29T12:16:56;5.35;;;2.35;;
7295;SDS011;40758;54.038;11.684;2023-07-29T12:19:34;5.20;;;2.42;;
7295;SDS011;40758;54.038;11.684;2023-07-29T12:22:03;4.53;;;2.20;;
7295;SDS011;40758;54.038;11.684;2023-07-29T12:24:36;5.40;;;4.38;;
7295;SDS011;40758;54.038;11.684;2023-07-29T12:27:05;4.47;;;2.55;;
7295;SDS011;40758;54.038;11.684;2023-07-29T12:29:40;4.88;;;2.30;;
7295;SDS011;40758;54.038;11.684;2023-07-29T12:32:19;4.47;;;1.83;;
7295;SDS011;40758;54.038;11.684;2023-07-29T12:34:48;5.15;;;2.90;;
7295;SDS011;40758;54.038;11.684;2023-07-29T12:37:16;5.07;;;2.33;;
7295;SDS011;40758;54.038;11.684;2023-07-29T12:39:43;5.63;;;2.67;;
7295;SDS011;40758;54.038;11.684;2023-07-29T12:42:10;5.10;;;2.55;;
7295;SDS011;40758;54.038;11.684;2023-07-29T12:44:37;6.07;;;3.97;;
7295;SDS011;40758;54.038;11.684;2023-07-29T12:47:05;8.32;;;5.10;;
7295;SDS011;40758;54.038;11.684;2023-07-29T12:49:33;8.32;;;5.43;;
7295;SDS011;40758;54.038;11.684;2023-07-29T12:54:28;7.50;;;4.95;;
7295;SDS011;40758;54.038;11.684;2023-07-29T12:56:54;8.70;;;4.90;;
7295;SDS011;40758;54.038;11.684;2023-07-29T12:59:21;7.60;;;5.60;;
7295;SDS011;40758;54.038;11.684;2023-07-29T13:01:48;7.55;;;4.85;;
7295;SDS011;40758;54.038;11.684;2023-07-29T13:04:15;6.82;;;4.82;;
7295;SDS011;40758;54.038;11.684;2023-07-29T13:06:42;7.13;;;5.70;;
7295;SDS011;40758;54.038;11.684;2023-07-29T13:09:09;7.50;;;5.40;;
7295;SDS011;40758;54.038;11.684;2023-07-29T13:11:36;7.60;;;4.85;;
7295;SDS011;40758;54.038;11.684;2023-07-29T13:14:03;8.77;;;5.80;;
7295;SDS011;40758;54.038;11.684;2023-07-29T13:16:30;6.40;;;4.40;;
7295;SDS011;40758;54.038;11.684;2023-07-29T13:18:57;7.70;;;5.30;;
7295;SDS011;40758;54.038;11.684;2023-07-29T13:21:24;8.05;;;5.20;;
7295;SDS011;40758;54.038;11.684;2023-07-29T13:23:51;6.32;;;4.00;;
7295;SDS011;40758;54.038;11.684;2023-07-29T13:26:18;7.00;;;4.45;;
7295;SDS011;40758;54.038;11.684;2023-07-29T13:28:45;7.45;;;5.22;;
7295;SDS011;40758;54.038;11.684;2023-07-29T13:31:12;7.60;;;5.28;;
7295;SDS011;40758;54.038;11.684;2023-07-29T13:33:39;6.47;;;4.78;;
7295;SDS011;40758;54.038;11.684;2023-07-29T13:36:06;7.15;;;4.47;;
7295;SDS011;40758;54.038;11.684;2023-07-29T13:38:35;7.45;;;4.35;;
7295;SDS011;40758;54.038;11.684;2023-07-29T13:41:02;8.38;;;5.78;;
7295;SDS011;40758;54.038;11.684;2023-07-29T13:43:29;6.75;;;3.90;;
7295;SDS011;40758;54.038;11.684;2023-07-29T13:45:55;6.90;;;4.38;;
7295;SDS011;40758;54.038;11.684;2023-07-29T13:48:22;6.97;;;4.32;;
7295;SDS011;40758;54.038;11.684;2023-07-29T13:50:49;6.68;;;4.40;;
7295;SDS011;40758;54.038;11.684;2023-07-29T13:53:17;6.78;;;5.28;;
7295;SDS011;40758;54.038;11.684;2023-07-29T13:55:44;6.28;;;3.60;;
7295;SDS011;40758;54.038;11.684;2023-07-29T13:58:10;6.85;;;4.45;;
7295;SDS011;40758;54.038;11.684;2023-07-29T14:00:37;7.53;;;4.60;;
7295;SDS011;40758;54.038;11.684;2023-07-29T14:03:04;6.55;;;4.57;;
7295;SDS011;40758;54.038;11.684;2023-07-29T14:05:31;6.53;;;3.67;;
7295;SDS011;40758;54.038;11.684;2023-07-29T14:07:57;6.00;;;4.22;;
7295;SDS011;40758;54.038;11.684;2023-07-29T14:10:24;6.38;;;4.95;;
7295;SDS011;40758;54.038;11.684;2023-07-29T14:12:51;6.15;;;3.75;;
7295;SDS011;40758;54.038;11.684;2023-07-29T14:15:17;5.65;;;3.20;;
7295;SDS011;40758;54.038;11.684;2023-07-29T14:17:44;5.93;;;3.28;;
7295;SDS011;40758;54.038;11.684;2023-07-29T14:20:11;4.78;;;3.13;;
7295;SDS011;40758;54.038;11.684;2023-07-29T14:22:38;6.22;;;4.00;;
7295;SDS011;40758;54.038;11.684;2023-07-29T14:25:05;6.75;;;5.20;;
7295;SDS011;40758;54.038;11.684;2023-07-29T14:27:33;7.07;;;4.80;;
7295;SDS011;40758;54.038;11.684;2023-07-29T14:30:00;6.03;;;5.15;;
7295;SDS011;40758;54.038;11.684;2023-07-29T14:32:27;6.75;;;5.28;;
7295;SDS011;40758;54.038;11.684;2023-07-29T14:34:53;6.00;;;3.95;;
7295;SDS011;40758;54.038;11.684;2023-07-29T14:37:20;6.75;;;5.32;;
7295;SDS011;40758;54.038;11.684;2023-07-29T14:39:47;5.78;;;4.57;;
7295;SDS011;40758;54.038;11.684;2023-07-29T14:42:14;4.55;;;3.33;;
7295;SDS011;40758;54.038;11.684;2023-07-29T14:44:41;4.97;;;3.58;;
7295;SDS011;40758;54.038;11.684;2023-07-29T14:47:08;5.90;;;3.13;;
7295;SDS011;40758;54.038;11.684;2023-07-29T14:49:34;4.20;;;3.20;;
7295;SDS011;40758;54.038;11.684;2023-07-29T14:52:01;4.97;;;3.70;;
7295;SDS011;40758;54.038;11.684;2023-07-29T14:54:28;5.10;;;3.92;;
7295;SDS011;40758;54.038;11.684;2023-07-29T14:56:55;4.70;;;4.25;;
7295;SDS011;40758;54.038;11.684;2023-07-29T14:59:22;3.40;;;2.58;;
7295;SDS011;40758;54.038;11.684;2023-07-29T15:01:49;5.25;;;4.68;;
7295;SDS011;40758;54.038;11.684;2023-07-29T15:04:15;5.40;;;3.47;;
7295;SDS011;40758;54.038;11.684;2023-07-29T15:06:42;5.35;;;3.53;;